createdAt,value
2018-06-23T08:30:27.235Z,1001.25
2018-06-23T08:31:27.202Z,894.38
2018-06-23T08:32:27.195Z,866.25
2018-06-23T08:33:27.180Z,810.00
2018-06-23T08:34:27.144Z,765.00
2018-06-23T08:35:27.125Z,708.75
2018-06-23T08:36:27.112Z,646.88
2018-06-23T08:37:27.106Z,613.13
2018-06-23T08:38:27.079Z,573.75
2018-06-23T08:39:27.068Z,523.13
2018-06-23T08:40:27.038Z,511.88
2018-06-23T08:41:27.023Z,495.00
2018-06-23T08:42:27.023Z,540.00
2018-06-23T08:43:26.989Z,585.00
2018-06-23T08:44:26.984Z,596.25
2018-06-23T08:45:26.955Z,596.25
2018-06-23T08:46:26.940Z,624.38
2018-06-23T08:47:26.926Z,697.50
2018-06-23T08:48:27.383Z,714.38
2018-06-23T08:49:26.897Z,708.75
2018-06-23T08:50:26.896Z,708.75
2018-06-23T08:51:26.860Z,691.88
2018-06-23T08:52:27.840Z,675.00
2018-06-23T08:53:26.849Z,646.88
2018-06-23T08:54:26.808Z,652.50
2018-06-23T08:55:26.792Z,691.88
2018-06-23T08:56:26.780Z,697.50
2018-06-23T08:57:26.766Z,663.75
2018-06-23T08:58:26.745Z,613.13
2018-06-23T08:59:26.739Z,601.88
2018-06-23T09:00:26.711Z,601.88
2018-06-23T09:01:26.697Z,579.38
2018-06-23T09:02:26.684Z,511.88
2018-06-23T09:03:26.665Z,478.13
2018-06-23T09:04:26.655Z,489.38
2018-06-23T09:05:26.634Z,573.75
2018-06-23T09:06:26.627Z,573.75
2018-06-23T09:07:26.601Z,511.88
2018-06-23T09:08:26.610Z,500.63
2018-06-23T09:09:26.591Z,523.13
2018-06-23T09:10:26.575Z,646.88
2018-06-23T09:11:26.538Z,590.63
2018-06-23T09:12:26.524Z,489.38
2018-06-23T09:13:26.511Z,517.50
2018-06-23T09:14:26.508Z,573.75
2018-06-23T09:15:26.481Z,613.13
2018-06-23T09:16:26.452Z,781.88
2018-06-23T09:17:26.437Z,984.38
2018-06-23T09:18:26.424Z,939.38
2018-06-23T09:19:26.408Z,793.13
2018-06-23T09:20:26.404Z,753.75
2018-06-23T09:21:26.602Z,720.00
2018-06-23T09:22:26.361Z,804.38
2018-06-23T09:23:26.344Z,855.00
2018-06-23T09:24:26.331Z,905.63
2018-06-23T09:25:26.333Z,1051.88
2018-06-23T09:26:26.299Z,916.88
2018-06-23T09:27:26.280Z,855.00
2018-06-23T09:28:26.272Z,748.13
2018-06-23T09:29:26.247Z,635.63
2018-06-23T09:30:26.232Z,646.88
2018-06-23T09:31:26.228Z,568.13
2018-06-23T09:32:26.199Z,725.63
2018-06-23T09:33:26.185Z,871.88
2018-06-23T09:34:26.222Z,804.38
2018-06-23T09:35:26.151Z,945.00
2018-06-23T09:36:26.172Z,1136.25
2018-06-23T09:37:26.128Z,990.00
2018-06-23T09:38:26.106Z,911.25
2018-06-23T09:39:26.089Z,883.13
2018-06-23T09:40:26.084Z,928.13
2018-06-23T09:41:26.071Z,1029.38
2018-06-23T09:42:26.042Z,1046.25
2018-06-23T09:43:26.025Z,1085.63
2018-06-23T09:44:26.015Z,967.50
2018-06-23T09:45:25.997Z,888.75
2018-06-23T09:46:26.002Z,866.25
2018-06-23T09:47:25.966Z,883.13
2018-06-23T09:48:25.953Z,855.00
2018-06-23T09:49:25.936Z,770.63
2018-06-23T09:50:25.918Z,776.25
2018-06-23T09:51:25.907Z,798.75
2018-06-23T09:52:25.899Z,838.13
2018-06-23T09:53:25.878Z,855.00
2018-06-23T09:54:25.862Z,798.75
2018-06-23T09:55:25.844Z,781.88
2018-06-23T09:56:25.836Z,765.00
2018-06-23T09:57:25.841Z,798.75
2018-06-23T09:58:25.801Z,933.75
2018-06-23T09:59:25.785Z,1186.88
2018-06-23T10:00:25.774Z,1209.38
2018-06-23T10:01:25.756Z,1181.25
2018-06-23T10:02:25.740Z,1175.63
2018-06-23T10:03:25.744Z,1147.50
2018-06-23T10:04:25.710Z,1091.25
2018-06-23T10:05:25.697Z,1040.63
2018-06-23T10:06:25.683Z,900.00
2018-06-23T10:07:25.672Z,691.88
2018-06-23T10:08:25.676Z,630.00
2018-06-23T10:09:25.638Z,556.88
2018-06-23T10:10:25.636Z,517.50
2018-06-23T10:11:25.618Z,461.25
2018-06-23T10:12:25.597Z,399.38
2018-06-23T10:13:25.594Z,331.88
2018-06-23T10:14:25.575Z,292.50
2018-06-23T10:15:25.607Z,343.13
2018-06-23T10:16:25.540Z,371.25
2018-06-23T10:17:25.526Z,371.25
2018-06-23T10:18:25.521Z,371.25
2018-06-23T10:19:25.496Z,348.75
2018-06-23T10:20:25.480Z,320.63
2018-06-23T10:21:25.514Z,298.13
2018-06-23T10:22:25.456Z,286.88
2018-06-23T10:23:25.452Z,264.38
2018-06-23T10:24:25.436Z,258.75
2018-06-23T10:25:25.421Z,264.38
2018-06-23T10:26:25.394Z,258.75
2018-06-23T10:27:25.385Z,253.13
2018-06-23T10:28:25.360Z,253.13
2018-06-23T10:29:25.355Z,264.38
2018-06-23T10:30:25.329Z,275.63
2018-06-23T10:31:25.318Z,270.00
2018-06-23T10:32:25.298Z,270.00
2018-06-23T10:33:25.281Z,264.38
2018-06-23T10:34:25.301Z,275.63
2018-06-23T10:35:25.253Z,281.25
2018-06-23T10:36:25.235Z,298.13
2018-06-23T10:37:25.220Z,309.38
2018-06-23T10:38:25.224Z,320.63
2018-06-23T10:39:25.192Z,337.50
2018-06-23T10:40:25.186Z,365.63
2018-06-23T10:41:25.158Z,376.88
2018-06-23T10:42:25.141Z,421.88
2018-06-23T10:43:25.126Z,495.00
2018-06-23T10:44:25.110Z,708.75
2018-06-23T10:45:25.106Z,793.13
2018-06-23T10:46:25.085Z,798.75
2018-06-23T10:47:25.069Z,810.00
2018-06-23T10:48:25.047Z,821.25
2018-06-23T10:49:25.037Z,815.63
2018-06-23T10:50:25.027Z,804.38
2018-06-23T10:51:25.000Z,832.50
2018-06-23T10:52:24.985Z,900.00
2018-06-23T10:53:24.974Z,1023.75
2018-06-23T10:54:24.959Z,1271.25
2018-06-23T10:55:24.953Z,1507.50
2018-06-23T10:56:24.931Z,1406.25
2018-06-23T10:57:24.910Z,1198.13
2018-06-23T10:58:24.896Z,945.00
2018-06-23T10:59:24.883Z,691.88
2018-06-23T11:00:24.867Z,450.00
2018-06-23T11:01:24.876Z,315.00
2018-06-23T11:02:24.839Z,253.13
2018-06-23T11:03:24.824Z,219.38
2018-06-23T11:04:24.812Z,208.13
2018-06-23T11:05:24.846Z,202.50
2018-06-23T11:06:24.804Z,208.13
2018-06-23T11:07:24.778Z,230.63
2018-06-23T11:08:24.753Z,230.63
2018-06-23T11:09:24.739Z,236.25
2018-06-23T11:10:24.727Z,253.13
2018-06-23T11:11:24.708Z,303.75
2018-06-23T11:12:24.708Z,382.50
2018-06-23T11:13:24.681Z,500.63
2018-06-23T11:14:24.669Z,590.63
2018-06-23T11:15:24.650Z,613.13
2018-06-23T11:16:24.640Z,607.50
2018-06-23T11:17:24.632Z,562.50
2018-06-23T11:18:24.610Z,506.25
2018-06-23T11:19:24.593Z,410.63
2018-06-23T11:20:24.579Z,388.13
2018-06-23T11:21:24.562Z,371.25
2018-06-23T11:22:24.555Z,360.00
2018-06-23T11:23:24.531Z,365.63
2018-06-23T11:24:24.561Z,388.13
2018-06-23T11:25:24.505Z,405.00
2018-06-23T11:26:24.490Z,444.38
2018-06-23T11:27:24.492Z,511.88
2018-06-23T11:28:24.456Z,590.63
2018-06-23T11:29:24.443Z,714.38
2018-06-23T11:30:24.428Z,860.63
2018-06-23T11:31:24.412Z,1096.88
2018-06-23T11:32:24.394Z,1215.00
2018-06-23T11:33:24.390Z,1293.75
2018-06-23T11:34:24.366Z,1417.50
2018-06-23T11:35:24.359Z,1440.00
2018-06-23T11:36:24.348Z,1428.75
2018-06-23T11:37:24.325Z,1355.63
2018-06-23T11:38:24.315Z,1293.75
2018-06-23T11:39:24.305Z,1333.13
2018-06-23T11:40:24.278Z,1440.00
2018-06-23T11:41:24.272Z,1428.75
2018-06-23T11:42:24.254Z,1276.88
2018-06-23T11:43:24.236Z,1170.00
2018-06-23T11:44:24.220Z,978.75
2018-06-23T11:45:24.218Z,748.13
2018-06-23T11:46:24.190Z,635.63
2018-06-23T11:47:24.180Z,534.38
2018-06-23T11:48:24.167Z,517.50
2018-06-23T11:49:24.150Z,506.25
2018-06-23T11:50:24.151Z,489.38
2018-06-23T11:51:24.124Z,506.25
2018-06-23T11:52:24.201Z,534.38
2018-06-23T11:53:24.099Z,573.75
2018-06-23T11:54:24.077Z,663.75
2018-06-23T11:55:24.077Z,658.13
2018-06-23T11:56:24.052Z,652.50
2018-06-23T11:57:24.037Z,613.13
2018-06-23T11:58:24.022Z,596.25
2018-06-23T11:59:24.008Z,663.75
2018-06-23T12:00:23.997Z,804.38
2018-06-23T12:01:23.986Z,815.63
2018-06-23T12:02:23.965Z,894.38
2018-06-23T12:03:23.949Z,871.88
2018-06-23T12:04:23.935Z,826.88
2018-06-23T12:05:23.933Z,911.25
2018-06-23T12:06:23.914Z,1023.75
2018-06-23T12:07:23.898Z,1226.25
2018-06-23T12:08:23.877Z,1209.38
2018-06-23T12:09:23.862Z,1220.63
2018-06-23T12:10:23.865Z,1226.25
2018-06-23T12:11:23.884Z,1209.38
2018-06-23T12:12:24.340Z,1051.88
2018-06-23T12:13:23.890Z,916.88
2018-06-23T12:14:23.792Z,849.38
2018-06-23T12:15:23.777Z,810.00
2018-06-23T12:16:23.782Z,759.38
2018-06-23T12:17:23.752Z,748.13
2018-06-23T12:18:23.736Z,787.50
2018-06-23T12:19:23.719Z,922.50
2018-06-23T12:20:23.705Z,1085.63
2018-06-23T12:21:23.694Z,1046.25
2018-06-23T12:22:23.693Z,967.50
2018-06-23T12:23:23.666Z,1091.25
2018-06-23T12:24:23.648Z,1243.13
2018-06-23T12:25:23.676Z,1372.50
2018-06-23T12:26:23.630Z,1490.63
2018-06-23T12:27:23.649Z,1580.63
2018-06-23T12:28:23.589Z,1530.00
2018-06-23T12:29:23.588Z,1485.00
2018-06-23T12:30:23.587Z,1575.00
2018-06-23T12:31:23.552Z,1710.00
2018-06-23T12:32:23.536Z,1884.38
2018-06-23T12:33:23.544Z,1951.88
2018-06-23T12:34:23.570Z,1935.00
2018-06-23T12:35:23.499Z,1845.00
2018-06-23T12:36:23.487Z,1676.25
2018-06-23T12:37:23.471Z,1400.63
2018-06-23T12:38:23.474Z,1158.75
2018-06-23T12:39:23.444Z,1158.75
2018-06-23T12:40:23.433Z,1063.13
2018-06-23T12:41:23.466Z,838.13
2018-06-23T12:42:23.405Z,630.00
2018-06-23T12:43:23.402Z,568.13
2018-06-23T12:44:23.381Z,511.88
2018-06-23T12:45:23.365Z,444.38
2018-06-23T12:46:23.352Z,438.75
2018-06-23T12:47:23.354Z,517.50
2018-06-23T12:48:23.395Z,601.88
2018-06-23T12:49:23.312Z,888.75
2018-06-23T12:50:23.297Z,1198.13
2018-06-23T12:51:23.316Z,1687.50
2018-06-23T12:52:23.273Z,2103.75
2018-06-23T12:53:23.421Z,2131.88
2018-06-23T12:54:23.262Z,2154.38
2018-06-23T12:55:23.233Z,2216.25
2018-06-23T12:56:23.218Z,2109.38
2018-06-23T12:57:23.261Z,1935.00
2018-06-23T12:58:23.311Z,1788.75
2018-06-23T12:59:23.177Z,1597.50
2018-06-23T13:00:23.168Z,1636.88
2018-06-23T13:01:23.169Z,1507.50
2018-06-23T13:02:23.145Z,1411.88
2018-06-23T13:03:23.158Z,1653.75
2018-06-23T13:04:23.142Z,1636.88
2018-06-23T13:05:23.127Z,1591.88
2018-06-23T13:06:23.106Z,1620.00
2018-06-23T13:07:23.077Z,1507.50
2018-06-23T13:08:23.080Z,1575.00
2018-06-23T13:09:23.068Z,1586.25
2018-06-23T13:10:23.043Z,1698.75
2018-06-23T13:11:23.035Z,1687.50
2018-06-23T13:12:23.019Z,1845.00
2018-06-23T13:13:23.038Z,1901.25
2018-06-23T13:14:23.025Z,1951.88
2018-06-23T13:15:22.979Z,1946.25
2018-06-23T13:16:22.963Z,1901.25
2018-06-23T13:17:22.952Z,1839.38
2018-06-23T13:18:22.949Z,1935.00
2018-06-23T13:19:22.927Z,1985.63
2018-06-23T13:20:22.920Z,2160.00
2018-06-23T13:21:22.904Z,2289.38
2018-06-23T13:22:22.909Z,2413.13
2018-06-23T13:23:22.891Z,2671.88
2018-06-23T13:24:22.871Z,2379.38
2018-06-23T13:25:22.856Z,3048.75
2018-06-23T13:26:22.860Z,2649.38
2018-06-23T13:27:22.884Z,3245.63
2018-06-23T13:28:22.827Z,2716.88
2018-06-23T13:29:22.808Z,5265.00
2018-06-23T13:30:22.800Z,4640.63
2018-06-23T13:31:22.792Z,2733.75
2018-06-23T13:32:22.812Z,4370.63
2018-06-23T13:33:22.769Z,3054.38
2018-06-23T13:34:22.748Z,2638.13
2018-06-23T13:35:22.737Z,2728.13
2018-06-23T13:36:22.724Z,3020.63
2018-06-23T13:37:22.718Z,2199.38
2018-06-23T13:38:22.717Z,2446.88
2018-06-23T13:39:22.701Z,2188.13
2018-06-23T13:40:22.684Z,2131.88
2018-06-23T13:41:22.696Z,1828.13
2018-06-23T13:42:22.665Z,2570.63
2018-06-23T13:43:23.447Z,2913.75
2018-06-23T13:44:22.639Z,2463.75
2018-06-23T13:45:22.642Z,1929.38
2018-06-23T13:46:22.674Z,2756.25
2018-06-23T13:47:22.604Z,2902.50
2018-06-23T13:48:22.952Z,4173.75
2018-06-23T13:49:22.583Z,3076.88
2018-06-23T13:50:22.568Z,2373.75
2018-06-23T13:51:22.583Z,4106.25
2018-06-23T13:52:22.564Z,1715.63
2018-06-23T13:53:22.569Z,3448.13
2018-06-23T13:54:22.606Z,2480.63
2018-06-23T13:55:22.512Z,4432.50
2018-06-23T13:56:22.501Z,4280.63
2018-06-23T13:57:22.494Z,1608.75
2018-06-23T13:58:22.964Z,1940.63
2018-06-23T13:59:23.450Z,2385.00
2018-06-23T14:00:22.458Z,2694.38
2018-06-23T14:01:22.443Z,2677.50
2018-06-23T14:02:22.434Z,1940.63
2018-06-23T14:03:22.499Z,2981.25
2018-06-23T14:04:22.410Z,2491.88
2018-06-23T14:05:22.400Z,3763.13
2018-06-23T14:06:22.389Z,4545.00
2018-06-23T14:07:22.378Z,4410.00
2018-06-23T14:08:22.376Z,3335.63
2018-06-23T14:09:22.371Z,5928.75
2018-06-23T14:10:22.347Z,6474.38
2018-06-23T14:11:22.330Z,5355.00
2018-06-23T14:12:22.322Z,5416.88
2018-06-23T14:13:22.321Z,5332.50
2018-06-23T14:14:22.303Z,6193.13
2018-06-23T14:15:22.290Z,4263.75
2018-06-23T14:16:22.326Z,3481.88
2018-06-23T14:17:22.285Z,1996.88
2018-06-23T14:18:22.277Z,1800.00
2018-06-23T14:19:22.257Z,4511.25
2018-06-23T14:20:22.246Z,5332.50
2018-06-23T14:21:22.237Z,5236.88
2018-06-23T14:22:22.245Z,5625.00
2018-06-23T14:23:22.224Z,5923.13
2018-06-23T14:24:22.204Z,5551.88
2018-06-23T14:25:22.213Z,4955.63
2018-06-23T14:26:22.192Z,3436.88
2018-06-23T14:27:22.190Z,5551.88
2018-06-23T14:28:22.181Z,2992.50
2018-06-23T14:29:22.162Z,4741.88
2018-06-23T14:30:22.158Z,2525.63
2018-06-23T14:31:22.291Z,2677.50
2018-06-23T14:32:22.273Z,2896.88
2018-06-23T14:33:22.138Z,2092.50
2018-06-23T14:34:22.123Z,1940.63
2018-06-23T14:35:22.118Z,1636.88
2018-06-23T14:36:22.100Z,1473.75
2018-06-23T14:37:22.096Z,1518.75
2018-06-23T14:38:22.106Z,1440.00
2018-06-23T14:39:22.076Z,1513.13
2018-06-23T14:40:22.073Z,1344.38
2018-06-23T14:41:22.060Z,1147.50
2018-06-23T14:42:22.049Z,1080.00
2018-06-23T14:43:22.051Z,1288.13
2018-06-23T14:44:22.029Z,1125.00
2018-06-23T14:45:22.020Z,1276.88
2018-06-23T14:46:22.009Z,1316.25
2018-06-23T14:47:22.000Z,1468.13
2018-06-23T14:48:21.999Z,1681.88
2018-06-23T14:49:21.988Z,2086.88
2018-06-23T14:50:21.967Z,4286.25
2018-06-23T14:51:21.955Z,3330.00
2018-06-23T14:52:21.944Z,4151.25
2018-06-23T14:53:21.946Z,4151.25
2018-06-23T14:54:21.922Z,4758.75
2018-06-23T14:55:21.912Z,4696.88
2018-06-23T14:56:21.913Z,4584.38
2018-06-23T14:57:21.899Z,4798.13
2018-06-23T14:58:21.894Z,4961.25
2018-06-23T14:59:21.879Z,4910.63
2018-06-23T15:00:21.862Z,4905.00
2018-06-23T15:01:21.855Z,4651.88
2018-06-23T15:02:21.850Z,3780.00
2018-06-23T15:03:21.852Z,4151.25
2018-06-23T15:04:21.832Z,2778.75
2018-06-23T15:05:21.819Z,4201.88
2018-06-23T15:06:21.813Z,4027.50
2018-06-23T15:07:21.839Z,4308.75
2018-06-23T15:08:21.811Z,1822.50
2018-06-23T15:09:21.793Z,1490.63
2018-06-23T15:10:21.783Z,1423.13
2018-06-23T15:11:21.778Z,1507.50
2018-06-23T15:12:21.768Z,1513.13
2018-06-23T15:13:21.772Z,1794.38
2018-06-23T15:14:21.760Z,1884.38
2018-06-23T15:15:21.741Z,1631.25
2018-06-23T15:16:21.738Z,1378.13
2018-06-23T15:17:21.729Z,1591.88
2018-06-23T15:18:21.729Z,2036.25
2018-06-23T15:19:21.714Z,2700.00
2018-06-23T15:20:21.700Z,1535.63
2018-06-23T15:21:21.692Z,1440.00
2018-06-23T15:22:21.684Z,1344.38
2018-06-23T15:23:21.695Z,1215.00
2018-06-23T15:24:21.664Z,1102.50
2018-06-23T15:25:21.656Z,1012.50
2018-06-23T15:26:21.648Z,877.50
2018-06-23T15:27:21.635Z,798.75
2018-06-23T15:28:21.629Z,725.63
2018-06-23T15:29:21.963Z,556.88
2018-06-23T15:30:21.605Z,489.38
2018-06-23T15:31:21.594Z,450.00
2018-06-23T15:32:21.589Z,405.00
2018-06-23T15:33:21.574Z,331.88
2018-06-23T15:34:21.574Z,292.50
2018-06-23T15:35:21.550Z,298.13
2018-06-23T15:36:21.548Z,309.38
2018-06-23T15:37:21.527Z,286.88
2018-06-23T15:38:21.516Z,225.00
2018-06-23T15:39:21.517Z,191.25
2018-06-23T15:40:21.494Z,202.50
2018-06-23T15:41:21.481Z,236.25
2018-06-23T15:42:21.466Z,258.75
2018-06-23T15:43:21.463Z,241.88
2018-06-23T15:44:21.454Z,225.00
2018-06-23T15:45:21.431Z,225.00
2018-06-23T15:46:21.420Z,236.25
2018-06-23T15:47:21.407Z,236.25
2018-06-23T15:48:21.396Z,241.88
2018-06-23T15:49:21.395Z,253.13
2018-06-23T15:50:21.366Z,270.00
2018-06-23T15:51:21.352Z,298.13
2018-06-23T15:52:21.336Z,343.13
2018-06-23T15:53:21.334Z,416.25
2018-06-23T15:54:21.325Z,506.25
2018-06-23T15:55:21.299Z,540.00
2018-06-23T15:56:21.287Z,585.00
2018-06-23T15:57:21.271Z,669.38
2018-06-23T15:58:21.260Z,691.88
2018-06-23T15:59:21.261Z,759.38
2018-06-23T16:00:21.237Z,883.13
2018-06-23T16:01:21.220Z,950.63
2018-06-23T16:02:21.205Z,1068.75
2018-06-23T16:03:21.191Z,1085.63
2018-06-23T16:04:21.210Z,1040.63
2018-06-23T16:05:21.164Z,1040.63
2018-06-23T16:06:21.150Z,990.00
2018-06-23T16:07:21.140Z,973.13
2018-06-23T16:08:21.126Z,2165.63
2018-06-23T16:09:21.128Z,2340.00
2018-06-23T16:10:21.097Z,1226.25
2018-06-23T16:11:21.088Z,1366.88
2018-06-23T16:12:21.073Z,1406.25
2018-06-23T16:13:21.061Z,2739.38
2018-06-23T16:14:21.061Z,1383.75
2018-06-23T16:15:21.041Z,2396.25
2018-06-23T16:16:21.024Z,1051.88
2018-06-23T16:17:21.011Z,1102.50
2018-06-23T16:18:21.001Z,860.63
2018-06-23T16:19:21.001Z,1305.00
2018-06-23T16:20:20.978Z,905.63
2018-06-23T16:21:20.967Z,1006.88
2018-06-23T16:22:20.949Z,1046.25
2018-06-23T16:23:20.944Z,1074.38
2018-06-23T16:24:20.943Z,2103.75
2018-06-23T16:25:20.922Z,860.63
2018-06-23T16:26:20.904Z,922.50
2018-06-23T16:27:20.891Z,826.88
2018-06-23T16:28:20.881Z,1468.13
2018-06-23T16:29:20.903Z,1344.38
2018-06-23T16:30:20.935Z,1141.88
2018-06-23T16:31:20.845Z,1057.50
2018-06-23T16:32:20.835Z,1406.25
2018-06-23T16:33:20.821Z,855.00
2018-06-23T16:34:20.824Z,787.50
2018-06-23T16:35:21.092Z,776.25
2018-06-23T16:36:20.787Z,787.50
2018-06-23T16:37:20.774Z,832.50
2018-06-23T16:38:20.764Z,821.25
2018-06-23T16:39:20.765Z,759.38
2018-06-23T16:40:20.739Z,720.00
2018-06-23T16:41:20.726Z,708.75
2018-06-23T16:42:20.715Z,731.25
2018-06-23T16:43:20.697Z,697.50
2018-06-23T16:44:20.697Z,680.63
2018-06-23T16:45:20.680Z,658.13
2018-06-23T16:46:20.664Z,663.75
2018-06-23T16:47:20.648Z,675.00
2018-06-23T16:48:20.633Z,663.75
2018-06-23T16:49:20.640Z,646.88
2018-06-23T16:50:20.611Z,596.25
2018-06-23T16:51:20.601Z,568.13
2018-06-23T16:52:20.584Z,528.75
2018-06-23T16:53:20.570Z,523.13
2018-06-23T16:54:20.572Z,523.13
2018-06-23T16:55:20.545Z,528.75
2018-06-23T16:56:20.532Z,523.13
2018-06-23T16:57:20.520Z,517.50
2018-06-23T16:58:20.505Z,506.25
2018-06-23T16:59:20.508Z,517.50
2018-06-23T17:00:20.480Z,517.50
2018-06-23T17:01:20.466Z,523.13
2018-06-23T17:02:20.453Z,523.13
2018-06-23T17:03:20.438Z,534.38
2018-06-23T17:04:20.483Z,596.25
2018-06-23T17:05:20.412Z,646.88
2018-06-23T17:06:20.404Z,725.63
2018-06-23T17:07:20.389Z,1788.75
2018-06-23T17:08:20.372Z,2019.38
2018-06-23T17:09:20.373Z,2025.00
2018-06-23T17:10:20.348Z,2081.25
2018-06-23T17:11:20.346Z,1963.13
2018-06-23T17:12:20.320Z,2098.13
2018-06-23T17:13:20.307Z,1985.63
2018-06-23T17:14:20.315Z,1951.88
2018-06-23T17:15:20.322Z,1974.38
2018-06-23T17:16:20.276Z,1974.38
2018-06-23T17:17:20.265Z,1991.25
2018-06-23T17:18:20.251Z,1918.13
2018-06-23T17:19:20.254Z,1845.00
2018-06-23T17:20:20.236Z,1800.00
2018-06-23T17:21:20.227Z,1653.75
2018-06-23T17:22:20.218Z,1569.38
2018-06-23T17:23:20.208Z,1642.50
2018-06-23T17:24:20.210Z,1338.75
2018-06-23T17:25:20.192Z,1147.50
2018-06-23T17:26:20.182Z,1153.13
2018-06-23T17:27:20.176Z,1108.13
2018-06-23T17:28:20.175Z,1215.00
2018-06-23T17:29:20.170Z,1181.25
2018-06-23T17:30:20.153Z,613.13
2018-06-23T17:31:20.137Z,748.13
2018-06-23T17:32:20.135Z,511.88
2018-06-23T17:33:20.124Z,461.25
2018-06-23T17:34:20.130Z,466.88
2018-06-23T17:35:20.107Z,478.13
2018-06-23T17:36:20.103Z,461.25
2018-06-23T17:37:20.086Z,905.63
2018-06-23T17:38:20.103Z,1361.25
2018-06-23T17:39:20.093Z,1406.25
2018-06-23T17:40:20.066Z,1417.50
2018-06-23T17:41:20.052Z,1434.38
2018-06-23T17:42:20.042Z,1411.88
2018-06-23T17:43:20.027Z,1406.25
2018-06-23T17:44:20.032Z,1333.13
2018-06-23T17:45:20.013Z,1215.00
2018-06-23T17:46:20.004Z,1153.13
2018-06-23T17:47:19.995Z,1136.25
2018-06-23T17:48:19.994Z,1068.75
2018-06-23T17:49:19.990Z,995.63
2018-06-23T17:50:19.969Z,973.13
2018-06-23T17:51:19.961Z,877.50
2018-06-23T17:52:19.955Z,748.13
2018-06-23T17:53:19.948Z,804.38
2018-06-23T17:54:19.945Z,911.25
2018-06-23T17:55:19.925Z,967.50
2018-06-23T17:56:19.918Z,978.75
2018-06-23T17:57:19.975Z,1006.88
2018-06-23T17:58:19.903Z,1018.13
2018-06-23T17:59:19.905Z,1091.25
2018-06-23T18:00:19.885Z,1068.75
2018-06-23T18:01:19.875Z,978.75
2018-06-23T18:02:19.863Z,748.13
2018-06-23T18:03:19.863Z,646.88
2018-06-23T18:04:19.880Z,506.25
2018-06-23T18:05:19.845Z,450.00
2018-06-23T18:06:19.853Z,433.13
2018-06-23T18:07:19.823Z,410.63
2018-06-23T18:08:19.808Z,388.13
2018-06-23T18:09:19.816Z,376.88
2018-06-23T18:10:19.794Z,393.75
2018-06-23T18:11:19.782Z,388.13
2018-06-23T18:12:19.842Z,382.50
2018-06-23T18:13:19.766Z,376.88
2018-06-23T18:14:19.769Z,382.50
2018-06-23T18:15:19.746Z,388.13
2018-06-23T18:16:19.733Z,388.13
2018-06-23T18:17:19.723Z,376.88
2018-06-23T18:18:20.057Z,371.25
2018-06-23T18:19:19.743Z,360.00
2018-06-23T18:20:19.780Z,343.13
2018-06-23T18:21:19.676Z,326.25
2018-06-23T18:22:19.666Z,315.00
2018-06-23T18:23:19.654Z,331.88
2018-06-23T18:24:19.641Z,360.00
2018-06-23T18:25:19.704Z,365.63
2018-06-23T18:26:19.621Z,371.25
2018-06-23T18:27:19.606Z,365.63
2018-06-23T18:28:19.595Z,360.00
2018-06-23T18:29:19.579Z,348.75
2018-06-23T18:30:19.581Z,337.50
2018-06-23T18:31:19.558Z,320.63
2018-06-23T18:32:19.544Z,298.13
2018-06-23T18:33:19.534Z,270.00
2018-06-23T18:34:19.517Z,258.75
2018-06-23T18:35:19.519Z,247.50
2018-06-23T18:36:19.494Z,241.88
2018-06-23T18:37:19.486Z,241.88
2018-06-23T18:38:19.494Z,236.25
2018-06-23T18:39:20.451Z,230.63
2018-06-23T18:40:19.455Z,225.00
2018-06-23T18:41:19.427Z,219.38
2018-06-23T18:42:19.416Z,213.75
2018-06-23T18:43:19.410Z,208.13
2018-06-23T18:44:19.390Z,196.88
2018-06-23T18:45:19.393Z,185.63
2018-06-23T18:46:19.364Z,174.38
2018-06-23T18:47:19.353Z,168.75
2018-06-23T18:48:19.339Z,163.13
2018-06-23T18:49:19.322Z,168.75
2018-06-23T18:50:19.323Z,168.75
2018-06-23T18:51:19.305Z,168.75
2018-06-23T18:52:19.281Z,163.13
2018-06-23T18:53:19.269Z,151.88
2018-06-23T18:54:19.256Z,112.50
2018-06-23T18:55:19.254Z,101.25
2018-06-23T18:56:19.234Z,90.00
2018-06-23T18:57:19.310Z,84.38
2018-06-23T18:58:19.203Z,84.38
2018-06-23T18:59:19.191Z,84.38
2018-06-23T19:00:19.192Z,90.00
2018-06-23T19:01:19.160Z,90.00
2018-06-23T19:02:19.145Z,90.00
2018-06-23T19:03:19.136Z,95.63
2018-06-23T19:04:19.116Z,90.00
2018-06-23T19:05:19.173Z,90.00
2018-06-23T19:06:19.090Z,90.00
2018-06-23T19:07:19.079Z,84.38
2018-06-23T19:08:19.059Z,90.00
2018-06-23T19:09:19.161Z,90.00
2018-06-23T19:10:19.041Z,90.00
2018-06-23T19:11:19.016Z,95.63
2018-06-23T19:12:19.003Z,95.63
2018-06-23T19:13:18.998Z,95.63
2018-06-23T19:14:18.975Z,90.00
2018-06-23T19:15:18.974Z,90.00
2018-06-23T19:16:18.946Z,90.00
2018-06-23T19:17:19.005Z,90.00
2018-06-23T19:18:18.914Z,90.00
2018-06-23T19:19:18.902Z,90.00
2018-06-23T19:20:18.965Z,90.00
2018-06-23T19:21:18.873Z,84.38
2018-06-23T19:22:18.862Z,84.38
2018-06-23T19:23:18.843Z,78.75
2018-06-23T19:24:18.837Z,73.13
2018-06-23T19:25:18.825Z,73.13
2018-06-23T19:26:18.800Z,67.50
2018-06-23T19:27:18.785Z,61.88
2018-06-23T19:28:18.768Z,56.25
2018-06-23T19:29:18.756Z,56.25
2018-06-23T19:30:18.760Z,50.63
2018-06-23T19:31:18.731Z,45.00
2018-06-23T19:32:18.713Z,45.00
2018-06-23T19:33:18.696Z,39.38
2018-06-23T19:34:18.690Z,39.38
2018-06-23T19:35:18.681Z,33.75
2018-06-23T19:36:18.652Z,33.75
2018-06-23T19:37:18.631Z,28.13
2018-06-23T19:38:18.637Z,28.13
2018-06-23T19:39:18.606Z,28.13
2018-06-23T19:40:18.617Z,22.50
2018-06-23T19:41:18.578Z,22.50
2018-06-23T19:42:18.558Z,22.50
2018-06-23T19:43:18.547Z,16.88
2018-06-23T19:44:18.594Z,16.88
2018-06-23T19:45:18.533Z,16.88
2018-06-23T19:46:18.502Z,16.88
2018-06-23T19:47:18.484Z,11.25
2018-06-23T19:48:18.469Z,11.25
2018-06-23T19:49:18.459Z,11.25
2018-06-23T19:50:18.448Z,11.25
2018-06-23T19:51:18.426Z,11.25
2018-06-23T19:52:18.407Z,11.25
2018-06-23T19:53:18.395Z,5.63
2018-06-23T19:54:18.377Z,5.63
2018-06-23T19:55:18.374Z,5.63
2018-06-23T19:56:18.353Z,5.63
2018-06-23T19:57:18.325Z,5.63
2018-06-23T19:58:18.311Z,5.63
2018-06-23T19:59:18.298Z,5.63
2018-06-23T20:00:18.293Z,5.63
2018-06-23T20:01:18.268Z,0.00
2018-06-23T20:02:18.252Z,0.00
2018-06-23T20:03:18.237Z,0.00
2018-06-23T20:04:18.241Z,0.00
2018-06-23T20:05:18.219Z,0.00
2018-06-23T20:06:18.191Z,0.00
2018-06-23T20:07:18.175Z,0.00
2018-06-23T20:08:18.221Z,0.00
2018-06-23T20:09:18.150Z,0.00
2018-06-23T20:10:18.138Z,0.00
2018-06-23T20:11:18.113Z,0.00
2018-06-23T20:12:18.095Z,0.00
2018-06-23T20:13:18.083Z,0.00
2018-06-23T20:14:18.063Z,0.00
2018-06-23T20:15:18.055Z,0.00
2018-06-23T20:16:18.030Z,0.00
2018-06-23T20:17:18.013Z,0.00
2018-06-23T20:18:17.998Z,0.00
2018-06-23T20:19:17.989Z,0.00
2018-06-23T20:20:17.986Z,0.00
2018-06-23T20:21:17.951Z,0.00
2018-06-23T20:22:18.004Z,0.00
2018-06-23T20:23:17.917Z,0.00
2018-06-23T20:24:17.904Z,0.00
2018-06-23T20:25:17.898Z,0.00
2018-06-23T20:26:17.867Z,0.00
2018-06-23T20:27:17.853Z,0.00
2018-06-23T20:28:17.839Z,0.00
2018-06-23T20:29:17.825Z,0.00
2018-06-23T20:30:17.815Z,0.00
2018-06-23T20:31:17.787Z,0.00
2018-06-23T20:32:17.771Z,0.00
2018-06-23T20:33:17.758Z,0.00
2018-06-23T20:34:17.740Z,0.00
2018-06-23T20:35:17.738Z,0.00
2018-06-23T20:36:17.707Z,0.00
2018-06-23T20:37:17.690Z,0.00
2018-06-23T20:38:17.678Z,0.00
2018-06-23T20:39:17.662Z,0.00
2018-06-23T20:40:17.651Z,0.00
2018-06-23T20:41:17.623Z,0.00
2018-06-23T20:42:17.607Z,0.00
2018-06-23T20:43:17.590Z,0.00
2018-06-23T20:44:17.572Z,0.00
2018-06-23T20:45:17.575Z,0.00
2018-06-23T20:46:17.541Z,0.00
2018-06-23T20:47:17.551Z,0.00
2018-06-23T20:48:17.508Z,0.00
2018-06-23T20:49:17.492Z,0.00
2018-06-23T20:50:17.487Z,0.00
2018-06-23T20:51:17.454Z,0.00
2018-06-23T20:52:17.445Z,0.00
2018-06-23T20:53:17.428Z,0.00
2018-06-23T20:54:17.414Z,0.00
2018-06-23T20:55:17.408Z,0.00